sensor_id;sensor_type;location;lat;lon;timestamp;P1;durP1;ratioP1;P2;durP2;ratioP2
7160;SDS011;3622;53.576;9.978;2023-12-20T00:01:00;6.33;;;1.67;;
7160;SDS011;3622;53.576;9.978;2023-12-20T00:03:26;11.80;;;2.13;;
7160;SDS011;3622;53.576;9.978;2023-12-20T00:05:52;10.43;;;1.93;;
7160;SDS011;3622;53.576;9.978;2023-12-20T00:08:18;15.47;;;1.27;;
7160;SDS011;3622;53.576;9.978;2023-12-20T00:10:44;10.47;;;1.80;;
7160;SDS011;3622;53.576;9.978;2023-12-20T00:13:10;8.87;;;1.70;;
7160;SDS011;3622;53.576;9.978;2023-12-20T00:15:36;6.20;;;1.60;;
7160;SDS011;3622;53.576;9.978;2023-12-20T00:18:03;5.53;;;1.10;;
7160;SDS011;3622;53.576;9.978;2023-12-20T00:20:29;15.00;;;2.17;;
7160;SDS011;3622;53.576;9.978;2023-12-20T00:22:56;6.67;;;1.90;;
7160;SDS011;3622;53.576;9.978;2023-12-20T00:25:22;10.53;;;1.80;;
7160;SDS011;3622;53.576;9.978;2023-12-20T00:27:48;13.00;;;2.23;;
7160;SDS011;3622;53.576;9.978;2023-12-20T00:30:14;6.37;;;1.57;;
7160;SDS011;3622;53.576;9.978;2023-12-20T00:32:40;12.97;;;2.00;;
7160;SDS011;3622;53.576;9.978;2023-12-20T00:35:11;11.97;;;2.43;;
7160;SDS011;3622;53.576;9.978;2023-12-20T00:37:37;9.90;;;2.77;;
7160;SDS011;3622;53.576;9.978;2023-12-20T00:40:03;5.20;;;1.77;;
7160;SDS011;3622;53.576;9.978;2023-12-20T00:42:29;5.03;;;1.57;;
7160;SDS011;3622;53.576;9.978;2023-12-20T00:44:55;7.30;;;1.40;;
7160;SDS011;3622;53.576;9.978;2023-12-20T00:47:21;6.13;;;1.17;;
7160;SDS011;3622;53.576;9.978;2023-12-20T00:49:47;8.97;;;2.17;;
7160;SDS011;3622;53.576;9.978;2023-12-20T00:52:13;9.53;;;2.00;;
7160;SDS011;3622;53.576;9.978;2023-12-20T00:54:39;7.43;;;1.40;;
7160;SDS011;3622;53.576;9.978;2023-12-20T00:57:05;7.50;;;1.50;;
7160;SDS011;3622;53.576;9.978;2023-12-20T00:59:31;7.70;;;2.00;;
7160;SDS011;3622;53.576;9.978;2023-12-20T01:01:57;7.50;;;2.10;;
7160;SDS011;3622;53.576;9.978;2023-12-20T01:04:23;11.93;;;1.83;;
7160;SDS011;3622;53.576;9.978;2023-12-20T01:06:49;4.10;;;2.27;;
7160;SDS011;3622;53.576;9.978;2023-12-20T01:09:15;6.30;;;2.00;;
7160;SDS011;3622;53.576;9.978;2023-12-20T01:11:40;4.47;;;1.80;;
7160;SDS011;3622;53.576;9.978;2023-12-20T01:14:06;10.00;;;1.90;;
7160;SDS011;3622;53.576;9.978;2023-12-20T01:16:32;7.23;;;1.80;;
7160;SDS011;3622;53.576;9.978;2023-12-20T01:18:58;11.93;;;2.23;;
7160;SDS011;3622;53.576;9.978;2023-12-20T01:21:24;10.70;;;1.67;;
7160;SDS011;3622;53.576;9.978;2023-12-20T01:23:50;12.73;;;1.70;;
7160;SDS011;3622;53.576;9.978;2023-12-20T01:26:16;14.73;;;2.63;;
7160;SDS011;3622;53.576;9.978;2023-12-20T01:28:42;4.60;;;1.67;;
7160;SDS011;3622;53.576;9.978;2023-12-20T01:31:08;9.30;;;2.10;;
7160;SDS011;3622;53.576;9.978;2023-12-20T01:33:34;7.53;;;1.70;;
7160;SDS011;3622;53.576;9.978;2023-12-20T01:36:00;8.40;;;1.30;;
7160;SDS011;3622;53.576;9.978;2023-12-20T01:38:26;10.17;;;1.83;;
7160;SDS011;3622;53.576;9.978;2023-12-20T01:40:52;6.13;;;1.57;;
7160;SDS011;3622;53.576;9.978;2023-12-20T01:43:18;14.27;;;2.97;;
7160;SDS011;3622;53.576;9.978;2023-12-20T01:45:44;10.10;;;1.87;;
7160;SDS011;3622;53.576;9.978;2023-12-20T01:48:10;20.43;;;2.13;;
7160;SDS011;3622;53.576;9.978;2023-12-20T01:50:36;13.13;;;1.60;;
7160;SDS011;3622;53.576;9.978;2023-12-20T01:53:03;7.77;;;2.00;;
7160;SDS011;3622;53.576;9.978;2023-12-20T01:55:30;5.83;;;1.50;;
7160;SDS011;3622;53.576;9.978;2023-12-20T01:57:57;9.73;;;1.83;;
7160;SDS011;3622;53.576;9.978;2023-12-20T02:00:24;9.13;;;1.40;;
7160;SDS011;3622;53.576;9.978;2023-12-20T02:02:52;13.40;;;1.60;;
7160;SDS011;3622;53.576;9.978;2023-12-20T02:05:18;7.17;;;1.67;;
7160;SDS011;3622;53.576;9.978;2023-12-20T02:07:44;6.57;;;1.27;;
7160;SDS011;3622;53.576;9.978;2023-12-20T02:10:10;19.70;;;2.00;;
7160;SDS011;3622;53.576;9.978;2023-12-20T02:12:36;4.37;;;1.40;;
7160;SDS011;3622;53.576;9.978;2023-12-20T02:15:02;8.67;;;1.77;;
7160;SDS011;3622;53.576;9.978;2023-12-20T02:17:29;8.57;;;1.80;;
7160;SDS011;3622;53.576;9.978;2023-12-20T02:19:55;4.57;;;1.20;;
7160;SDS011;3622;53.576;9.978;2023-12-20T02:22:21;15.10;;;1.70;;
7160;SDS011;3622;53.576;9.978;2023-12-20T02:24:47;12.13;;;1.90;;
7160;SDS011;3622;53.576;9.978;2023-12-20T02:27:13;10.83;;;1.47;;
7160;SDS011;3622;53.576;9.978;2023-12-20T02:29:41;3.77;;;1.30;;
7160;SDS011;3622;53.576;9.978;2023-12-20T02:32:07;11.13;;;1.27;;
7160;SDS011;3622;53.576;9.978;2023-12-20T02:34:33;2.80;;;0.83;;
7160;SDS011;3622;53.576;9.978;2023-12-20T02:36:58;8.00;;;1.83;;
7160;SDS011;3622;53.576;9.978;2023-12-20T02:39:25;8.13;;;1.30;;
7160;SDS011;3622;53.576;9.978;2023-12-20T02:41:51;7.00;;;1.40;;
7160;SDS011;3622;53.576;9.978;2023-12-20T02:44:17;17.73;;;2.17;;
7160;SDS011;3622;53.576;9.978;2023-12-20T02:46:43;6.80;;;1.03;;
7160;SDS011;3622;53.576;9.978;2023-12-20T02:49:09;16.80;;;1.70;;
7160;SDS011;3622;53.576;9.978;2023-12-20T02:51:35;4.03;;;1.17;;
7160;SDS011;3622;53.576;9.978;2023-12-20T02:54:03;8.30;;;1.70;;
7160;SDS011;3622;53.576;9.978;2023-12-20T02:56:29;6.63;;;1.20;;
7160;SDS011;3622;53.576;9.978;2023-12-20T02:58:55;8.50;;;1.37;;
7160;SDS011;3622;53.576;9.978;2023-12-20T03:01:21;10.40;;;1.70;;
7160;SDS011;3622;53.576;9.978;2023-12-20T03:03:47;6.40;;;1.60;;
7160;SDS011;3622;53.576;9.978;2023-12-20T03:06:15;11.23;;;1.40;;
7160;SDS011;3622;53.576;9.978;2023-12-20T03:08:41;2.77;;;1.20;;
7160;SDS011;3622;53.576;9.978;2023-12-20T03:11:07;11.43;;;2.50;;
7160;SDS011;3622;53.576;9.978;2023-12-20T03:13:33;7.30;;;1.57;;
7160;SDS011;3622;53.576;9.978;2023-12-20T03:15:59;4.67;;;1.20;;
7160;SDS011;3622;53.576;9.978;2023-12-20T03:18:25;13.10;;;2.13;;
7160;SDS011;3622;53.576;9.978;2023-12-20T03:20:53;5.43;;;1.20;;
7160;SDS011;3622;53.576;9.978;2023-12-20T03:23:19;10.00;;;1.53;;
7160;SDS011;3622;53.576;9.978;2023-12-20T03:25:45;11.03;;;2.10;;
7160;SDS011;3622;53.576;9.978;2023-12-20T03:28:11;4.37;;;1.40;;
7160;SDS011;3622;53.576;9.978;2023-12-20T03:30:37;7.33;;;1.37;;
7160;SDS011;3622;53.576;9.978;2023-12-20T03:33:02;9.83;;;1.20;;
7160;SDS011;3622;53.576;9.978;2023-12-20T03:35:28;5.40;;;1.40;;
7160;SDS011;3622;53.576;9.978;2023-12-20T03:37:54;6.53;;;1.50;;
7160;SDS011;3622;53.576;9.978;2023-12-20T03:40:22;4.37;;;1.40;;
7160;SDS011;3622;53.576;9.978;2023-12-20T03:42:47;6.30;;;1.50;;
7160;SDS011;3622;53.576;9.978;2023-12-20T03:45:13;9.90;;;1.37;;
7160;SDS011;3622;53.576;9.978;2023-12-20T03:47:39;5.40;;;1.50;;
7160;SDS011;3622;53.576;9.978;2023-12-20T03:50:05;5.93;;;1.10;;
7160;SDS011;3622;53.576;9.978;2023-12-20T03:52:32;3.13;;;1.07;;
7160;SDS011;3622;53.576;9.978;2023-12-20T03:54:57;9.20;;;1.77;;
7160;SDS011;3622;53.576;9.978;2023-12-20T03:57:23;9.23;;;1.50;;
7160;SDS011;3622;53.576;9.978;2023-12-20T03:59:49;8.90;;;1.27;;
7160;SDS011;3622;53.576;9.978;2023-12-20T04:02:15;8.53;;;1.73;;
7160;SDS011;3622;53.576;9.978;2023-12-20T04:04:42;4.77;;;1.70;;
7160;SDS011;3622;53.576;9.978;2023-12-20T04:07:08;7.33;;;1.50;;
7160;SDS011;3622;53.576;9.978;2023-12-20T04:09:34;3.50;;;1.40;;
7160;SDS011;3622;53.576;9.978;2023-12-20T04:12:00;7.13;;;1.13;;
7160;SDS011;3622;53.576;9.978;2023-12-20T04:14:26;3.60;;;1.10;;
7160;SDS011;3622;53.576;9.978;2023-12-20T04:16:53;4.70;;;1.80;;
7160;SDS011;3622;53.576;9.978;2023-12-20T04:19:19;6.83;;;1.93;;
7160;SDS011;3622;53.576;9.978;2023-12-20T04:21:45;15.00;;;1.77;;
7160;SDS011;3622;53.576;9.978;2023-12-20T04:24:11;6.43;;;1.90;;
7160;SDS011;3622;53.576;9.978;2023-12-20T04:26:37;7.53;;;1.57;;
7160;SDS011;3622;53.576;9.978;2023-12-20T04:29:03;7.90;;;1.97;;
7160;SDS011;3622;53.576;9.978;2023-12-20T04:31:29;10.53;;;2.10;;
7160;SDS011;3622;53.576;9.978;2023-12-20T04:33:55;4.30;;;1.70;;
7160;SDS011;3622;53.576;9.978;2023-12-20T04:36:20;5.00;;;1.37;;
7160;SDS011;3622;53.576;9.978;2023-12-20T04:38:46;4.30;;;1.73;;
7160;SDS011;3622;53.576;9.978;2023-12-20T04:41:12;8.40;;;2.17;;
7160;SDS011;3622;53.576;9.978;2023-12-20T04:43:41;6.87;;;2.03;;
7160;SDS011;3622;53.576;9.978;2023-12-20T04:46:07;5.30;;;1.30;;
7160;SDS011;3622;53.576;9.978;2023-12-20T04:48:33;4.33;;;1.53;;
7160;SDS011;3622;53.576;9.978;2023-12-20T04:50:58;8.77;;;1.40;;
7160;SDS011;3622;53.576;9.978;2023-12-20T04:53:24;14.30;;;2.00;;
7160;SDS011;3622;53.576;9.978;2023-12-20T04:55:51;8.80;;;2.00;;
7160;SDS011;3622;53.576;9.978;2023-12-20T04:58:16;7.50;;;1.30;;
7160;SDS011;3622;53.576;9.978;2023-12-20T05:00:42;9.73;;;1.90;;
7160;SDS011;3622;53.576;9.978;2023-12-20T05:03:08;7.13;;;1.93;;
7160;SDS011;3622;53.576;9.978;2023-12-20T05:05:34;10.40;;;2.17;;
7160;SDS011;3622;53.576;9.978;2023-12-20T05:08:00;8.97;;;2.27;;
7160;SDS011;3622;53.576;9.978;2023-12-20T05:10:26;6.17;;;1.57;;
7160;SDS011;3622;53.576;9.978;2023-12-20T05:12:52;11.30;;;1.93;;
7160;SDS011;3622;53.576;9.978;2023-12-20T05:15:18;10.63;;;3.20;;
7160;SDS011;3622;53.576;9.978;2023-12-20T05:17:44;10.20;;;2.03;;
7160;SDS011;3622;53.576;9.978;2023-12-20T05:20:10;5.90;;;2.30;;
7160;SDS011;3622;53.576;9.978;2023-12-20T05:22:36;5.13;;;1.80;;
7160;SDS011;3622;53.576;9.978;2023-12-20T05:25:02;6.87;;;2.00;;
7160;SDS011;3622;53.576;9.978;2023-12-20T05:27:29;9.23;;;2.17;;
7160;SDS011;3622;53.576;9.978;2023-12-20T05:29:55;4.57;;;2.00;;
7160;SDS011;3622;53.576;9.978;2023-12-20T05:32:22;10.03;;;1.57;;
7160;SDS011;3622;53.576;9.978;2023-12-20T05:34:48;10.40;;;2.40;;
7160;SDS011;3622;53.576;9.978;2023-12-20T05:37:14;11.27;;;1.80;;
7160;SDS011;3622;53.576;9.978;2023-12-20T05:39:40;6.40;;;2.50;;
7160;SDS011;3622;53.576;9.978;2023-12-20T05:42:06;5.67;;;2.17;;
7160;SDS011;3622;53.576;9.978;2023-12-20T05:44:32;10.20;;;2.10;;
7160;SDS011;3622;53.576;9.978;2023-12-20T05:46:58;6.83;;;1.47;;
7160;SDS011;3622;53.576;9.978;2023-12-20T05:49:24;8.37;;;1.80;;
7160;SDS011;3622;53.576;9.978;2023-12-20T05:51:50;7.73;;;1.93;;
7160;SDS011;3622;53.576;9.978;2023-12-20T05:54:16;5.77;;;1.40;;
7160;SDS011;3622;53.576;9.978;2023-12-20T05:56:42;8.70;;;2.07;;
7160;SDS011;3622;53.576;9.978;2023-12-20T05:59:08;7.60;;;2.20;;
7160;SDS011;3622;53.576;9.978;2023-12-20T06:01:34;7.77;;;1.50;;
7160;SDS011;3622;53.576;9.978;2023-12-20T06:04:00;11.67;;;1.70;;
7160;SDS011;3622;53.576;9.978;2023-12-20T06:06:26;8.43;;;2.13;;
7160;SDS011;3622;53.576;9.978;2023-12-20T06:08:52;4.87;;;1.77;;
7160;SDS011;3622;53.576;9.978;2023-12-20T06:11:18;5.20;;;1.60;;
7160;SDS011;3622;53.576;9.978;2023-12-20T06:13:44;5.47;;;2.50;;
7160;SDS011;3622;53.576;9.978;2023-12-20T06:16:10;4.23;;;1.80;;
7160;SDS011;3622;53.576;9.978;2023-12-20T06:18:36;8.13;;;2.70;;
7160;SDS011;3622;53.576;9.978;2023-12-20T06:21:02;13.00;;;1.80;;
7160;SDS011;3622;53.576;9.978;2023-12-20T06:23:28;7.60;;;2.03;;
7160;SDS011;3622;53.576;9.978;2023-12-20T06:25:54;8.03;;;2.00;;
7160;SDS011;3622;53.576;9.978;2023-12-20T06:28:20;5.73;;;1.60;;
7160;SDS011;3622;53.576;9.978;2023-12-20T06:30:46;5.70;;;2.00;;
7160;SDS011;3622;53.576;9.978;2023-12-20T06:33:14;13.80;;;1.83;;
7160;SDS011;3622;53.576;9.978;2023-12-20T06:35:40;12.47;;;1.63;;
7160;SDS011;3622;53.576;9.978;2023-12-20T06:38:06;5.73;;;1.67;;
7160;SDS011;3622;53.576;9.978;2023-12-20T06:40:33;3.17;;;1.53;;
7160;SDS011;3622;53.576;9.978;2023-12-20T06:42:59;6.77;;;1.50;;
7160;SDS011;3622;53.576;9.978;2023-12-20T06:45:25;11.40;;;2.47;;
7160;SDS011;3622;53.576;9.978;2023-12-20T06:47:51;12.07;;;2.10;;
7160;SDS011;3622;53.576;9.978;2023-12-20T06:50:17;11.27;;;2.40;;
7160;SDS011;3622;53.576;9.978;2023-12-20T06:52:43;8.90;;;2.10;;
7160;SDS011;3622;53.576;9.978;2023-12-20T06:55:09;10.53;;;1.83;;
7160;SDS011;3622;53.576;9.978;2023-12-20T06:57:35;10.17;;;1.80;;
7160;SDS011;3622;53.576;9.978;2023-12-20T07:00:02;9.60;;;1.60;;
7160;SDS011;3622;53.576;9.978;2023-12-20T07:02:28;5.33;;;1.63;;
7160;SDS011;3622;53.576;9.978;2023-12-20T07:04:55;5.27;;;1.50;;
7160;SDS011;3622;53.576;9.978;2023-12-20T07:07:21;10.93;;;2.00;;
7160;SDS011;3622;53.576;9.978;2023-12-20T07:09:49;4.73;;;1.80;;
7160;SDS011;3622;53.576;9.978;2023-12-20T07:12:15;11.13;;;1.90;;
7160;SDS011;3622;53.576;9.978;2023-12-20T07:14:41;5.30;;;1.87;;
7160;SDS011;3622;53.576;9.978;2023-12-20T07:17:07;13.03;;;2.17;;
7160;SDS011;3622;53.576;9.978;2023-12-20T07:19:37;7.20;;;1.70;;
7160;SDS011;3622;53.576;9.978;2023-12-20T07:22:03;6.73;;;2.27;;
7160;SDS011;3622;53.576;9.978;2023-12-20T07:24:29;6.57;;;2.13;;
7160;SDS011;3622;53.576;9.978;2023-12-20T07:26:55;6.60;;;2.23;;
7160;SDS011;3622;53.576;9.978;2023-12-20T07:29:21;5.83;;;2.13;;
7160;SDS011;3622;53.576;9.978;2023-12-20T07:31:47;8.53;;;1.80;;
7160;SDS011;3622;53.576;9.978;2023-12-20T07:34:13;7.90;;;1.90;;
7160;SDS011;3622;53.576;9.978;2023-12-20T07:36:39;12.90;;;2.57;;
7160;SDS011;3622;53.576;9.978;2023-12-20T07:39:05;6.63;;;1.80;;
7160;SDS011;3622;53.576;9.978;2023-12-20T07:41:31;5.03;;;1.90;;
7160;SDS011;3622;53.576;9.978;2023-12-20T07:43:57;11.00;;;2.63;;
7160;SDS011;3622;53.576;9.978;2023-12-20T07:46:24;9.73;;;2.20;;
7160;SDS011;3622;53.576;9.978;2023-12-20T07:48:50;11.43;;;2.20;;
7160;SDS011;3622;53.576;9.978;2023-12-20T07:51:16;7.57;;;2.17;;
7160;SDS011;3622;53.576;9.978;2023-12-20T07:53:42;7.33;;;2.47;;
7160;SDS011;3622;53.576;9.978;2023-12-20T07:56:15;9.73;;;2.20;;
7160;SDS011;3622;53.576;9.978;2023-12-20T07:58:41;13.70;;;2.40;;
7160;SDS011;3622;53.576;9.978;2023-12-20T08:01:07;9.97;;;2.23;;
7160;SDS011;3622;53.576;9.978;2023-12-20T08:03:33;16.03;;;3.10;;
7160;SDS011;3622;53.576;9.978;2023-12-20T08:05:59;11.53;;;2.53;;
7160;SDS011;3622;53.576;9.978;2023-12-20T08:08:25;15.70;;;2.43;;
7160;SDS011;3622;53.576;9.978;2023-12-20T08:10:51;6.03;;;1.73;;
7160;SDS011;3622;53.576;9.978;2023-12-20T08:13:17;11.13;;;2.20;;
7160;SDS011;3622;53.576;9.978;2023-12-20T08:15:43;7.37;;;2.27;;
7160;SDS011;3622;53.576;9.978;2023-12-20T08:18:09;7.80;;;2.00;;
7160;SDS011;3622;53.576;9.978;2023-12-20T08:20:35;10.03;;;2.13;;
7160;SDS011;3622;53.576;9.978;2023-12-20T08:23:01;7.60;;;2.07;;
7160;SDS011;3622;53.576;9.978;2023-12-20T08:25:27;15.23;;;2.73;;
7160;SDS011;3622;53.576;9.978;2023-12-20T08:27:53;5.70;;;1.80;;
7160;SDS011;3622;53.576;9.978;2023-12-20T08:30:19;14.50;;;2.63;;
7160;SDS011;3622;53.576;9.978;2023-12-20T08:32:47;20.90;;;2.77;;
7160;SDS011;3622;53.576;9.978;2023-12-20T08:35:13;9.00;;;2.60;;
7160;SDS011;3622;53.576;9.978;2023-12-20T08:37:39;4.33;;;1.40;;
7160;SDS011;3622;53.576;9.978;2023-12-20T08:40:05;16.50;;;2.17;;
7160;SDS011;3622;53.576;9.978;2023-12-20T08:42:31;15.90;;;3.17;;
7160;SDS011;3622;53.576;9.978;2023-12-20T08:44:57;6.87;;;2.20;;
7160;SDS011;3622;53.576;9.978;2023-12-20T08:47:24;8.80;;;2.00;;
7160;SDS011;3622;53.576;9.978;2023-12-20T08:49:50;10.07;;;2.23;;
7160;SDS011;3622;53.576;9.978;2023-12-20T08:52:16;5.40;;;2.00;;
7160;SDS011;3622;53.576;9.978;2023-12-20T08:54:42;10.00;;;2.17;;
7160;SDS011;3622;53.576;9.978;2023-12-20T08:57:08;9.60;;;2.20;;
7160;SDS011;3622;53.576;9.978;2023-12-20T08:59:35;17.23;;;2.77;;
7160;SDS011;3622;53.576;9.978;2023-12-20T09:02:00;15.83;;;2.20;;
7160;SDS011;3622;53.576;9.978;2023-12-20T09:04:27;10.20;;;2.13;;
7160;SDS011;3622;53.576;9.978;2023-12-20T09:06:53;8.73;;;2.07;;
7160;SDS011;3622;53.576;9.978;2023-12-20T09:09:18;6.23;;;1.77;;
7160;SDS011;3622;53.576;9.978;2023-12-20T09:11:44;6.63;;;1.63;;
7160;SDS011;3622;53.576;9.978;2023-12-20T09:14:13;6.43;;;1.90;;
7160;SDS011;3622;53.576;9.978;2023-12-20T09:16:39;6.33;;;1.50;;
7160;SDS011;3622;53.576;9.978;2023-12-20T09:19:05;7.13;;;2.07;;
7160;SDS011;3622;53.576;9.978;2023-12-20T09:21:31;8.73;;;1.60;;
7160;SDS011;3622;53.576;9.978;2023-12-20T09:23:56;15.33;;;1.90;;
7160;SDS011;3622;53.576;9.978;2023-12-20T09:26:23;8.50;;;2.40;;
7160;SDS011;3622;53.576;9.978;2023-12-20T09:28:49;5.00;;;1.47;;
7160;SDS011;3622;53.576;9.978;2023-12-20T09:31:15;2.70;;;1.03;;
7160;SDS011;3622;53.576;9.978;2023-12-20T09:33:41;3.43;;;1.20;;
7160;SDS011;3622;53.576;9.978;2023-12-20T09:36:07;4.03;;;1.40;;
7160;SDS011;3622;53.576;9.978;2023-12-20T09:38:33;3.00;;;1.00;;
7160;SDS011;3622;53.576;9.978;2023-12-20T09:40:59;3.27;;;1.17;;
7160;SDS011;3622;53.576;9.978;2023-12-20T09:43:28;2.53;;;1.10;;
7160;SDS011;3622;53.576;9.978;2023-12-20T09:45:54;3.67;;;0.70;;
7160;SDS011;3622;53.576;9.978;2023-12-20T09:48:23;3.90;;;0.60;;
7160;SDS011;3622;53.576;9.978;2023-12-20T09:50:52;3.63;;;0.90;;
7160;SDS011;3622;53.576;9.978;2023-12-20T09:53:18;2.00;;;0.60;;
7160;SDS011;3622;53.576;9.978;2023-12-20T09:55:45;1.50;;;0.93;;
7160;SDS011;3622;53.576;9.978;2023-12-20T09:58:11;1.00;;;0.40;;
7160;SDS011;3622;53.576;9.978;2023-12-20T10:00:37;2.23;;;0.63;;
7160;SDS011;3622;53.576;9.978;2023-12-20T10:03:03;3.20;;;0.80;;
7160;SDS011;3622;53.576;9.978;2023-12-20T10:05:32;0.80;;;0.57;;
7160;SDS011;3622;53.576;9.978;2023-12-20T10:07:59;1.17;;;0.63;;
7160;SDS011;3622;53.576;9.978;2023-12-20T10:10:26;1.00;;;0.80;;
7160;SDS011;3622;53.576;9.978;2023-12-20T10:13:01;2.30;;;0.60;;
7160;SDS011;3622;53.576;9.978;2023-12-20T10:15:27;1.43;;;0.60;;
7160;SDS011;3622;53.576;9.978;2023-12-20T10:17:53;1.67;;;0.50;;
7160;SDS011;3622;53.576;9.978;2023-12-20T10:20:20;0.97;;;0.70;;
7160;SDS011;3622;53.576;9.978;2023-12-20T10:22:46;0.70;;;0.43;;
7160;SDS011;3622;53.576;9.978;2023-12-20T10:25:12;1.83;;;0.77;;
7160;SDS011;3622;53.576;9.978;2023-12-20T10:27:38;1.10;;;0.77;;
7160;SDS011;3622;53.576;9.978;2023-12-20T10:30:04;1.67;;;0.50;;
7160;SDS011;3622;53.576;9.978;2023-12-20T10:32:30;2.60;;;0.70;;
7160;SDS011;3622;53.576;9.978;2023-12-20T10:34:56;2.07;;;1.00;;
7160;SDS011;3622;53.576;9.978;2023-12-20T10:37:24;4.10;;;0.93;;
7160;SDS011;3622;53.576;9.978;2023-12-20T10:39:51;1.73;;;0.50;;
7160;SDS011;3622;53.576;9.978;2023-12-20T10:42:20;5.17;;;1.00;;
7160;SDS011;3622;53.576;9.978;2023-12-20T10:44:46;2.77;;;0.90;;
7160;SDS011;3622;53.576;9.978;2023-12-20T10:47:13;3.00;;;0.60;;
7160;SDS011;3622;53.576;9.978;2023-12-20T10:49:39;1.27;;;0.63;;
7160;SDS011;3622;53.576;9.978;2023-12-20T10:52:06;7.90;;;1.53;;
7160;SDS011;3622;53.576;9.978;2023-12-20T10:54:32;2.43;;;0.73;;
7160;SDS011;3622;53.576;9.978;2023-12-20T10:56:58;2.83;;;0.97;;
7160;SDS011;3622;53.576;9.978;2023-12-20T10:59:24;5.87;;;0.80;;
7160;SDS011;3622;53.576;9.978;2023-12-20T11:01:51;1.90;;;0.83;;
7160;SDS011;3622;53.576;9.978;2023-12-20T11:04:25;4.20;;;0.77;;
7160;SDS011;3622;53.576;9.978;2023-12-20T11:06:56;3.00;;;1.23;;
7160;SDS011;3622;53.576;9.978;2023-12-20T11:09:24;1.60;;;0.50;;
7160;SDS011;3622;53.576;9.978;2023-12-20T11:12:03;3.97;;;0.80;;
7160;SDS011;3622;53.576;9.978;2023-12-20T11:14:34;4.00;;;0.90;;
7160;SDS011;3622;53.576;9.978;2023-12-20T11:17:05;4.83;;;1.03;;
7160;SDS011;3622;53.576;9.978;2023-12-20T11:19:31;2.10;;;1.00;;
7160;SDS011;3622;53.576;9.978;2023-12-20T11:21:57;3.00;;;0.80;;
7160;SDS011;3622;53.576;9.978;2023-12-20T11:24:23;3.10;;;1.10;;
7160;SDS011;3622;53.576;9.978;2023-12-20T11:26:50;1.33;;;0.60;;
7160;SDS011;3622;53.576;9.978;2023-12-20T11:29:33;3.90;;;1.37;;
7160;SDS011;3622;53.576;9.978;2023-12-20T11:32:02;2.27;;;1.23;;
7160;SDS011;3622;53.576;9.978;2023-12-20T11:34:32;2.70;;;1.00;;
7160;SDS011;3622;53.576;9.978;2023-12-20T11:36:59;3.13;;;1.23;;
7160;SDS011;3622;53.576;9.978;2023-12-20T11:39:26;2.30;;;1.13;;
7160;SDS011;3622;53.576;9.978;2023-12-20T11:41:54;5.40;;;1.53;;
7160;SDS011;3622;53.576;9.978;2023-12-20T11:44:21;5.17;;;0.90;;
7160;SDS011;3622;53.576;9.978;2023-12-20T11:46:47;4.10;;;0.97;;
7160;SDS011;3622;53.576;9.978;2023-12-20T11:49:13;9.23;;;1.80;;
7160;SDS011;3622;53.576;9.978;2023-12-20T11:51:40;4.33;;;1.57;;
7160;SDS011;3622;53.576;9.978;2023-12-20T11:54:07;7.70;;;1.73;;
7160;SDS011;3622;53.576;9.978;2023-12-20T11:56:34;4.60;;;1.30;;
7160;SDS011;3622;53.576;9.978;2023-12-20T11:59:01;9.97;;;1.27;;
7160;SDS011;3622;53.576;9.978;2023-12-20T12:01:27;3.57;;;1.20;;
7160;SDS011;3622;53.576;9.978;2023-12-20T12:04:03;4.63;;;1.97;;
7160;SDS011;3622;53.576;9.978;2023-12-20T12:06:29;6.00;;;1.20;;
7160;SDS011;3622;53.576;9.978;2023-12-20T12:08:55;2.33;;;0.87;;
7160;SDS011;3622;53.576;9.978;2023-12-20T12:11:21;2.10;;;0.97;;
7160;SDS011;3622;53.576;9.978;2023-12-20T12:13:47;3.37;;;0.97;;
7160;SDS011;3622;53.576;9.978;2023-12-20T12:16:16;5.40;;;1.63;;
7160;SDS011;3622;53.576;9.978;2023-12-20T12:18:43;2.90;;;1.80;;
7160;SDS011;3622;53.576;9.978;2023-12-20T12:21:09;3.73;;;2.20;;
7160;SDS011;3622;53.576;9.978;2023-12-20T12:23:35;8.67;;;1.50;;
7160;SDS011;3622;53.576;9.978;2023-12-20T12:26:03;3.73;;;1.10;;
7160;SDS011;3622;53.576;9.978;2023-12-20T12:28:29;17.80;;;2.10;;
7160;SDS011;3622;53.576;9.978;2023-12-20T12:30:58;11.60;;;1.70;;
7160;SDS011;3622;53.576;9.978;2023-12-20T12:33:24;8.77;;;1.80;;
7160;SDS011;3622;53.576;9.978;2023-12-20T12:35:51;6.93;;;2.00;;
7160;SDS011;3622;53.576;9.978;2023-12-20T12:38:19;9.50;;;1.87;;
7160;SDS011;3622;53.576;9.978;2023-12-20T12:40:46;6.50;;;2.10;;
7160;SDS011;3622;53.576;9.978;2023-12-20T12:43:12;12.00;;;1.77;;
7160;SDS011;3622;53.576;9.978;2023-12-20T12:45:38;5.23;;;1.50;;
7160;SDS011;3622;53.576;9.978;2023-12-20T12:48:04;11.17;;;1.93;;
7160;SDS011;3622;53.576;9.978;2023-12-20T12:50:30;8.03;;;1.53;;
7160;SDS011;3622;53.576;9.978;2023-12-20T12:52:56;12.30;;;1.63;;
7160;SDS011;3622;53.576;9.978;2023-12-20T12:55:22;7.13;;;1.43;;
7160;SDS011;3622;53.576;9.978;2023-12-20T12:57:48;9.23;;;1.57;;
7160;SDS011;3622;53.576;9.978;2023-12-20T13:00:14;7.43;;;1.60;;
7160;SDS011;3622;53.576;9.978;2023-12-20T13:02:40;4.77;;;1.50;;
7160;SDS011;3622;53.576;9.978;2023-12-20T13:05:07;8.67;;;1.57;;
7160;SDS011;3622;53.576;9.978;2023-12-20T13:07:33;13.33;;;1.60;;
7160;SDS011;3622;53.576;9.978;2023-12-20T13:09:59;14.57;;;3.03;;
7160;SDS011;3622;53.576;9.978;2023-12-20T13:12:25;14.50;;;1.70;;
7160;SDS011;3622;53.576;9.978;2023-12-20T13:14:51;7.03;;;1.33;;
7160;SDS011;3622;53.576;9.978;2023-12-20T13:17:18;6.50;;;2.07;;
7160;SDS011;3622;53.576;9.978;2023-12-20T13:19:44;3.83;;;1.60;;
7160;SDS011;3622;53.576;9.978;2023-12-20T13:22:10;9.30;;;2.37;;
7160;SDS011;3622;53.576;9.978;2023-12-20T13:24:36;13.57;;;1.37;;
7160;SDS011;3622;53.576;9.978;2023-12-20T13:27:02;6.00;;;2.40;;
7160;SDS011;3622;53.576;9.978;2023-12-20T13:29:28;8.10;;;2.17;;
7160;SDS011;3622;53.576;9.978;2023-12-20T13:31:54;10.37;;;1.97;;
7160;SDS011;3622;53.576;9.978;2023-12-20T13:34:20;11.93;;;3.33;;
7160;SDS011;3622;53.576;9.978;2023-12-20T13:36:46;11.43;;;2.73;;
7160;SDS011;3622;53.576;9.978;2023-12-20T13:39:14;14.47;;;3.17;;
7160;SDS011;3622;53.576;9.978;2023-12-20T13:41:41;15.33;;;2.63;;
7160;SDS011;3622;53.576;9.978;2023-12-20T13:44:07;14.50;;;2.27;;
7160;SDS011;3622;53.576;9.978;2023-12-20T13:46:33;18.10;;;2.20;;
7160;SDS011;3622;53.576;9.978;2023-12-20T13:48:59;4.40;;;2.30;;
7160;SDS011;3622;53.576;9.978;2023-12-20T13:51:25;10.90;;;2.50;;
7160;SDS011;3622;53.576;9.978;2023-12-20T13:53:51;9.50;;;2.37;;
7160;SDS011;3622;53.576;9.978;2023-12-20T13:56:17;11.83;;;2.27;;
7160;SDS011;3622;53.576;9.978;2023-12-20T13:58:45;13.07;;;3.00;;
7160;SDS011;3622;53.576;9.978;2023-12-20T14:01:12;9.90;;;2.73;;
7160;SDS011;3622;53.576;9.978;2023-12-20T14:03:38;15.23;;;3.43;;
7160;SDS011;3622;53.576;9.978;2023-12-20T14:06:04;14.93;;;3.00;;
7160;SDS011;3622;53.576;9.978;2023-12-20T14:08:30;12.50;;;2.80;;
7160;SDS011;3622;53.576;9.978;2023-12-20T14:10:56;9.20;;;2.73;;
7160;SDS011;3622;53.576;9.978;2023-12-20T14:13:22;12.90;;;3.03;;
7160;SDS011;3622;53.576;9.978;2023-12-20T14:15:47;10.20;;;2.63;;
7160;SDS011;3622;53.576;9.978;2023-12-20T14:18:14;12.07;;;2.97;;
7160;SDS011;3622;53.576;9.978;2023-12-20T14:20:40;26.40;;;3.77;;
7160;SDS011;3622;53.576;9.978;2023-12-20T14:23:07;21.97;;;3.17;;
7160;SDS011;3622;53.576;9.978;2023-12-20T14:25:37;10.43;;;2.93;;
7160;SDS011;3622;53.576;9.978;2023-12-20T14:28:03;8.43;;;2.83;;
7160;SDS011;3622;53.576;9.978;2023-12-20T14:30:29;16.27;;;3.27;;
7160;SDS011;3622;53.576;9.978;2023-12-20T14:32:55;8.40;;;2.50;;
7160;SDS011;3622;53.576;9.978;2023-12-20T14:35:21;7.97;;;2.83;;
7160;SDS011;3622;53.576;9.978;2023-12-20T14:37:47;17.20;;;2.97;;
7160;SDS011;3622;53.576;9.978;2023-12-20T14:40:15;16.63;;;3.23;;
7160;SDS011;3622;53.576;9.978;2023-12-20T14:42:44;10.60;;;3.10;;
7160;SDS011;3622;53.576;9.978;2023-12-20T14:45:10;13.37;;;3.20;;
7160;SDS011;3622;53.576;9.978;2023-12-20T14:47:38;10.07;;;2.70;;
7160;SDS011;3622;53.576;9.978;2023-12-20T14:50:04;14.40;;;3.00;;
7160;SDS011;3622;53.576;9.978;2023-12-20T14:52:30;9.40;;;2.90;;
7160;SDS011;3622;53.576;9.978;2023-12-20T14:54:57;14.43;;;2.47;;
7160;SDS011;3622;53.576;9.978;2023-12-20T14:57:23;13.13;;;2.60;;
7160;SDS011;3622;53.576;9.978;2023-12-20T14:59:49;4.23;;;1.60;;
7160;SDS011;3622;53.576;9.978;2023-12-20T15:02:15;14.40;;;3.00;;
7160;SDS011;3622;53.576;9.978;2023-12-20T15:04:41;7.80;;;2.17;;